Dennis J. Pasentine — WDF2813 — position and weather

sailwx.info

Track history (hours):
 
Tides and Currents Weather Stations Pressure Air Temp Water Temp Dewpoint Dewpoint Depression Visibility Wind Speed Wind Dir Waves Ship Positions

Dennis J. Pasentine

Owner: Florida Marine Transporters, Inc., Mandeville, LA. More information available from US FCC via Universal Licensing System and Coast Guard Vessel Documentation Center.

Last reported at 2015-May-16 20:32 UTC. Time now 2015-May-24 07:15 UTC.
Position N 30°39' W 091°20'.

Length 42 m.

Type: Towing. MMSI: 367432180.

Date/timePositionNaut miles runAvg speedWind from/ knotsBaromVisibWave heightAir tempDewpointWater temp
2015-May-16 20:32N 30°39' W 091°20'4 3.9
2015-May-16 19:33N 30°36' W 091°19'4 4.4
2015-May-16 18:33N 30°33' W 091°15'3 3.2
2015-May-16 17:33N 30°30' W 091°16'3 3.3
2015-May-16 16:33N 30°30' W 091°12'3 3.1
2015-May-16 15:33N 30°27' W 091°12'4 3.5
2015-May-16 14:33N 30°23' W 091°13'1 0.6
2015-May-16 13:33N 30°23' W 091°13'0 0.0
2015-May-16 12:33N 30°23' W 091°13'0 0.0
2015-May-16 11:33N 30°23' W 091°13'0 0.0
2015-May-16 10:33N 30°23' W 091°13'0 0.0
2015-May-16 09:33N 30°23' W 091°13'0 0.0
2015-May-16 08:33N 30°23' W 091°13'0 0.0
2015-May-16 07:33N 30°23' W 091°13'1 1.3
2015-May-16 06:33N 30°22' W 091°14'3 3.1
2015-May-16 05:33N 30°21' W 091°11'2 2.0
2015-May-16 04:32N 30°19' W 091°11'  
2015-May-07 16:05N 30°15' W 091°07'6 3.8
2015-May-07 14:31N 30°20' W 091°09'5 5.0
2015-May-07 13:32N 30°24' W 091°13'0 0.1
2015-May-07 12:29N 30°24' W 091°12'0 0.0
2015-May-07 11:32N 30°24' W 091°12'7 7.0
2015-May-07 10:33N 30°31' W 091°12'4 4.0
2015-May-07 09:34N 30°31' W 091°17'4 3.8
2015-May-07 08:34N 30°34' W 091°18'5 4.5
2015-May-07 07:30N 30°39' W 091°19'  
Track history (hours):
 
Tides and Currents Weather Stations Pressure Air Temp Water Temp Dewpoint Dewpoint Depression Visibility Wind Speed Wind Dir Waves Ship Positions

Dennis J. Pasentine

Owner: Florida Marine Transporters, Inc., Mandeville, LA. More information available from US FCC via Universal Licensing System and Coast Guard Vessel Documentation Center.

Last reported at 2015-May-16 20:32 UTC. Time now 2015-May-24 07:15 UTC.
Position N 30°39' W 091°20'.

Length 42 m.

Type: Towing. MMSI: 367432180.

Date/timePositionNaut miles runAvg speedWind from/ knotsBaromVisibWave heightAir tempDewpointWater temp
2015-May-16 20:32N 30°39' W 091°20'4 3.9
2015-May-16 19:33N 30°36' W 091°19'4 4.4
2015-May-16 18:33N 30°33' W 091°15'3 3.2
2015-May-16 17:33N 30°30' W 091°16'3 3.3
2015-May-16 16:33N 30°30' W 091°12'3 3.1
2015-May-16 15:33N 30°27' W 091°12'4 3.5
2015-May-16 14:33N 30°23' W 091°13'1 0.6
2015-May-16 13:33N 30°23' W 091°13'0 0.0
2015-May-16 12:33N 30°23' W 091°13'0 0.0
2015-May-16 11:33N 30°23' W 091°13'0 0.0
2015-May-16 10:33N 30°23' W 091°13'0 0.0
2015-May-16 09:33N 30°23' W 091°13'0 0.0
2015-May-16 08:33N 30°23' W 091°13'0 0.0
2015-May-16 07:33N 30°23' W 091°13'1 1.3
2015-May-16 06:33N 30°22' W 091°14'3 3.1
2015-May-16 05:33N 30°21' W 091°11'2 2.0
2015-May-16 04:32N 30°19' W 091°11'  
2015-May-07 16:05N 30°15' W 091°07'6 3.8
2015-May-07 14:31N 30°20' W 091°09'5 5.0
2015-May-07 13:32N 30°24' W 091°13'0 0.1
2015-May-07 12:29N 30°24' W 091°12'0 0.0
2015-May-07 11:32N 30°24' W 091°12'7 7.0
2015-May-07 10:33N 30°31' W 091°12'4 4.0
2015-May-07 09:34N 30°31' W 091°17'4 3.8
2015-May-07 08:34N 30°34' W 091°18'5 4.5
2015-May-07 07:30N 30°39' W 091°19'  

Dump ship's entire track history